createdAt,value
2022-09-21T04:00:31.264Z,6.95
2022-09-21T04:04:33.741Z,7.82
2022-09-21T04:08:36.375Z,15.50
2022-09-21T04:12:38.859Z,21.27
2022-09-21T04:16:42.721Z,34.72
2022-09-21T04:20:45.214Z,17.85
2022-09-21T04:24:47.691Z,35.85
2022-09-21T04:28:50.709Z,32.75
2022-09-21T04:32:54.509Z,28.90
2022-09-21T04:36:56.995Z,44.72
2022-09-21T04:41:00.222Z,18.65
2022-09-21T04:45:02.690Z,63.97
2022-09-21T04:49:06.501Z,50.65
2022-09-21T04:53:09.294Z,42.47
2022-09-21T04:57:11.754Z,26.77
2022-09-21T05:01:14.299Z,20.75
2022-09-21T05:05:18.145Z,30.67
2022-09-21T05:09:40.529Z,34.97
2022-09-21T05:13:43.645Z,20.40
2022-09-21T05:17:46.645Z,23.20
2022-09-21T05:21:50.429Z,16.83
2022-09-21T05:25:52.914Z,14.57
2022-09-21T05:29:55.854Z,10.55
2022-09-21T05:34:04.065Z,5.20
2022-09-21T05:38:13.955Z,6.50
2022-09-21T05:42:16.890Z,5.85
2022-09-21T05:46:21.783Z,11.15
2022-09-21T05:50:41.937Z,12.93
2022-09-21T05:54:57.685Z,15.25
2022-09-21T05:59:10.156Z,12.55
2022-09-21T06:03:28.021Z,8.82
2022-09-21T06:07:30.498Z,30.83
2022-09-21T06:11:34.691Z,29.83
2022-09-21T06:15:38.470Z,30.73
2022-09-21T06:19:40.987Z,34.83
2022-09-21T06:23:43.464Z,33.95
2022-09-21T06:27:47.263Z,31.65
2022-09-21T06:31:49.903Z,40.15
2022-09-21T06:35:53.850Z,30.80
2022-09-21T06:39:56.331Z,30.52
2022-09-21T06:44:00.157Z,54.78
2022-09-21T06:48:03.105Z,26.10
2022-09-21T06:52:05.730Z,21.73
2022-09-21T06:56:10.749Z,30.17
2022-09-21T07:00:15.569Z,26.05
2022-09-21T07:04:21.943Z,54.90
2022-09-21T07:12:52.209Z,14.20
2022-09-21T07:16:56.017Z,15.35
2022-09-21T07:20:58.493Z,30.85
2022-09-21T07:25:01.588Z,9.57
2022-09-21T07:29:04.114Z,15.30
2022-09-21T07:33:08.714Z,21.73
2022-09-21T07:37:11.639Z,8.93
2022-09-21T07:41:15.182Z,20.60
2022-09-21T07:49:21.424Z,20.52
2022-09-21T07:53:23.919Z,9.95
2022-09-21T07:57:44.068Z,9.10
2022-09-21T08:01:46.640Z,9.52
2022-09-21T08:05:51.078Z,15.03
2022-09-21T08:09:53.551Z,5.38
2022-09-21T08:13:58.273Z,10.77
2022-09-21T08:18:01.231Z,7.65
2022-09-21T08:22:05.195Z,4.78
2022-09-21T08:26:08.917Z,7.93
2022-09-21T08:30:13.635Z,7.45
2022-09-21T08:34:16.127Z,7.00
2022-09-21T08:38:20.305Z,11.90
2022-09-21T08:42:41.446Z,7.03
2022-09-21T08:46:46.728Z,11.05
2022-09-21T08:50:53.574Z,5.90
2022-09-21T08:55:01.151Z,7.93
2022-09-21T08:59:03.723Z,7.13
2022-09-21T09:03:20.582Z,5.23
2022-09-21T09:07:38.787Z,11.85
2022-09-21T09:12:11.061Z,8.15
2022-09-21T09:16:23.160Z,5.93
2022-09-21T09:20:31.847Z,11.02
2022-09-21T09:24:39.870Z,9.50
2022-09-21T09:28:53.080Z,7.22
2022-09-21T09:33:01.278Z,11.38
2022-09-21T09:37:13.162Z,8.20
2022-09-21T09:41:29.990Z,7.07
2022-09-21T09:45:50.459Z,7.65
2022-09-21T09:50:05.435Z,6.63
2022-09-21T09:54:14.939Z,9.38
2022-09-21T09:58:20.344Z,6.78
2022-09-21T10:02:26.443Z,7.22
2022-09-21T10:06:33.019Z,7.45
2022-09-21T10:10:37.793Z,7.65
2022-09-21T10:14:40.367Z,7.85
2022-09-21T10:18:49.417Z,8.13
2022-09-21T10:22:57.022Z,8.90
2022-09-21T10:27:06.261Z,6.05
2022-09-21T10:31:18.834Z,8.35
2022-09-21T10:35:22.883Z,6.33
2022-09-21T10:39:28.963Z,5.45
2022-09-21T10:43:39.840Z,5.35
2022-09-21T10:47:48.324Z,7.68
2022-09-21T10:51:54.276Z,7.70
2022-09-21T10:56:17.932Z,6.72
2022-09-21T11:04:44.142Z,6.25
2022-09-21T11:08:54.469Z,7.25
2022-09-21T11:13:07.705Z,6.50
2022-09-21T11:17:18.423Z,9.50
2022-09-21T11:21:31.429Z,10.13
2022-09-21T11:25:43.504Z,6.65
2022-09-21T11:29:56.267Z,5.45
2022-09-21T11:34:16.468Z,4.50
2022-09-21T11:38:33.713Z,4.63
2022-09-21T11:42:49.301Z,6.32
2022-09-21T11:47:04.698Z,4.28
2022-09-21T11:51:20.795Z,4.50
2022-09-21T11:56:05.280Z,2.80
2022-09-21T12:00:17.173Z,6.47
2022-09-21T12:04:43.199Z,5.55
2022-09-21T12:08:58.103Z,5.10
2022-09-21T12:13:07.402Z,6.82
2022-09-21T12:17:18.243Z,8.45
2022-09-21T12:21:23.946Z,6.93
2022-09-21T12:25:30.993Z,5.57
2022-09-21T12:29:39.006Z,3.53
2022-09-21T12:33:47.897Z,5.50
2022-09-21T12:37:55.638Z,6.63
2022-09-21T12:42:03.479Z,3.70
2022-09-21T12:46:12.754Z,2.88
2022-09-21T12:50:22.709Z,7.10
2022-09-21T12:54:33.054Z,6.43
2022-09-21T12:58:50.652Z,4.57
2022-09-21T13:02:58.158Z,4.28
2022-09-21T13:07:37.321Z,4.70
2022-09-21T13:11:52.484Z,5.85
2022-09-21T13:15:55.650Z,3.75
2022-09-21T13:20:02.010Z,4.47
2022-09-21T13:24:08.600Z,5.68
2022-09-21T13:28:24.078Z,4.40
2022-09-21T13:32:54.650Z,3.78
2022-09-21T13:37:28.111Z,2.60
2022-09-21T13:41:51.699Z,3.35
2022-09-21T13:45:59.397Z,7.53
2022-09-21T13:50:13.262Z,6.30
2022-09-21T13:54:15.932Z,7.47
2022-09-21T13:58:23.652Z,5.40
2022-09-21T14:02:33.025Z,4.95
2022-09-21T14:06:44.717Z,7.22
2022-09-21T14:10:52.885Z,4.97
2022-09-21T14:15:12.737Z,3.08
2022-09-21T14:20:05.399Z,7.13
2022-09-21T14:24:22.937Z,5.55
2022-09-21T14:28:35.415Z,3.10
2022-09-21T14:32:47.226Z,3.57
2022-09-21T14:36:53.019Z,3.35
2022-09-21T14:41:00.697Z,4.07
2022-09-21T14:45:04.107Z,4.47
2022-09-21T14:49:19.660Z,5.22
2022-09-21T14:53:55.787Z,4.15
2022-09-21T14:58:19.350Z,2.85
2022-09-21T15:06:49.546Z,3.15
2022-09-21T15:11:00.984Z,2.22
2022-09-21T15:15:20.253Z,3.47
2022-09-21T15:19:25.543Z,5.38
2022-09-21T15:23:29.691Z,4.97
2022-09-21T15:27:33.955Z,3.75
2022-09-21T15:31:40.079Z,5.03
2022-09-21T15:35:47.575Z,3.40
2022-09-21T15:40:00.881Z,2.67
2022-09-21T15:48:13.159Z,6.63
2022-09-21T15:52:24.112Z,2.88
2022-09-21T15:56:28.628Z,3.33
2022-09-21T16:00:39.878Z,2.88
2022-09-21T16:04:49.233Z,3.58
2022-09-21T16:08:52.591Z,4.88
2022-09-21T16:13:02.038Z,6.70
2022-09-21T16:17:21.822Z,6.55
2022-09-21T16:21:28.159Z,2.72
2022-09-21T16:25:37.074Z,2.47
2022-09-21T16:29:42.941Z,3.33
2022-09-21T16:34:02.273Z,2.75
2022-09-21T16:38:09.951Z,6.22
2022-09-21T16:42:13.562Z,6.78
2022-09-21T16:46:16.078Z,3.83
2022-09-21T16:50:18.898Z,2.87
2022-09-21T16:54:24.454Z,2.75
2022-09-21T16:58:27.241Z,4.38
2022-09-21T17:02:31.218Z,4.00
2022-09-21T17:06:36.711Z,2.60
2022-09-21T17:10:44.849Z,2.38
2022-09-21T17:14:47.701Z,6.43
2022-09-21T17:18:50.619Z,3.10
2022-09-21T17:22:53.262Z,6.35
2022-09-21T17:26:57.099Z,6.53
2022-09-21T17:31:00.692Z,6.05
2022-09-21T17:35:15.763Z,6.97
2022-09-21T17:39:19.483Z,11.73
2022-09-21T17:43:38.181Z,13.02
2022-09-21T17:47:41.930Z,6.80
2022-09-21T17:52:02.544Z,7.28
2022-09-21T17:56:29.156Z,9.15
2022-09-21T18:00:42.424Z,7.68
2022-09-21T18:04:46.224Z,9.25
2022-09-21T18:08:50.331Z,8.38
2022-09-21T18:13:20.259Z,8.43
2022-09-21T18:17:44.755Z,14.40
2022-09-21T18:21:52.718Z,11.15
2022-09-21T18:25:57.138Z,12.40
2022-09-21T18:30:00.173Z,12.15
2022-09-21T18:34:19.821Z,10.70
2022-09-21T18:38:28.818Z,11.05
2022-09-21T18:42:42.352Z,9.23
2022-09-21T18:46:56.011Z,10.68
2022-09-21T18:55:18.424Z,11.48
2022-09-21T18:59:21.377Z,12.57
2022-09-21T19:03:24.651Z,11.70
2022-09-21T19:11:47.859Z,11.57
2022-09-21T19:16:01.376Z,7.78
2022-09-21T19:20:24.169Z,6.05
2022-09-21T19:24:36.129Z,8.02
2022-09-21T19:29:00.935Z,6.00
2022-09-21T19:33:48.387Z,4.82
2022-09-21T19:37:49.235Z,6.85
2022-09-21T19:42:05.236Z,7.63
2022-09-21T19:46:19.894Z,10.18
2022-09-21T19:50:25.851Z,12.05
2022-09-21T19:54:46.623Z,11.35
2022-09-21T19:59:08.534Z,10.52
2022-09-21T20:03:15.677Z,9.23
2022-09-21T20:07:26.760Z,9.32
2022-09-21T20:11:38.947Z,8.02
2022-09-21T20:15:49.140Z,7.75
2022-09-21T20:19:55.927Z,7.47
2022-09-21T20:24:02.303Z,8.10
2022-09-21T20:28:06.142Z,6.90
2022-09-21T20:32:10.528Z,6.35
2022-09-21T20:36:13.074Z,4.30
2022-09-21T20:40:16.673Z,5.45
2022-09-21T20:44:19.175Z,7.28
2022-09-21T20:48:23.021Z,6.25
2022-09-21T20:52:25.699Z,6.55
2022-09-21T20:56:28.274Z,6.40
